sensor_id;sensor_type;location;lat;lon;timestamp;P1;durP1;ratioP1;P2;durP2;ratioP2
40675;SDS011;26359;48.750;9.314;2023-03-08T00:00:05;14.27;;;10.07;;
40675;SDS011;26359;48.750;9.314;2023-03-08T00:02:37;16.13;;;10.85;;
40675;SDS011;26359;48.750;9.314;2023-03-08T00:05:03;15.23;;;10.55;;
40675;SDS011;26359;48.750;9.314;2023-03-08T00:07:29;17.00;;;10.70;;
40675;SDS011;26359;48.750;9.314;2023-03-08T00:09:54;14.63;;;10.38;;
40675;SDS011;26359;48.750;9.314;2023-03-08T00:12:20;15.55;;;10.30;;
40675;SDS011;26359;48.750;9.314;2023-03-08T00:14:46;13.60;;;10.02;;
40675;SDS011;26359;48.750;9.314;2023-03-08T00:17:12;15.80;;;10.65;;
40675;SDS011;26359;48.750;9.314;2023-03-08T00:19:38;17.60;;;10.43;;
40675;SDS011;26359;48.750;9.314;2023-03-08T00:22:04;16.58;;;10.15;;
40675;SDS011;26359;48.750;9.314;2023-03-08T00:24:30;16.65;;;11.00;;
40675;SDS011;26359;48.750;9.314;2023-03-08T00:26:55;17.08;;;10.90;;
40675;SDS011;26359;48.750;9.314;2023-03-08T00:29:21;13.77;;;10.23;;
40675;SDS011;26359;48.750;9.314;2023-03-08T00:31:46;16.58;;;11.25;;
40675;SDS011;26359;48.750;9.314;2023-03-08T00:34:12;17.88;;;11.43;;
40675;SDS011;26359;48.750;9.314;2023-03-08T00:36:38;17.40;;;11.10;;
40675;SDS011;26359;48.750;9.314;2023-03-08T00:39:04;19.50;;;11.23;;
40675;SDS011;26359;48.750;9.314;2023-03-08T00:41:31;16.60;;;10.80;;
40675;SDS011;26359;48.750;9.314;2023-03-08T00:43:56;16.73;;;10.93;;
40675;SDS011;26359;48.750;9.314;2023-03-08T00:46:23;15.60;;;12.25;;
40675;SDS011;26359;48.750;9.314;2023-03-08T00:48:49;16.63;;;11.60;;
40675;SDS011;26359;48.750;9.314;2023-03-08T00:51:15;16.67;;;10.52;;
40675;SDS011;26359;48.750;9.314;2023-03-08T00:53:42;15.10;;;10.40;;
40675;SDS011;26359;48.750;9.314;2023-03-08T00:56:08;16.88;;;11.38;;
40675;SDS011;26359;48.750;9.314;2023-03-08T00:58:35;15.38;;;10.93;;
40675;SDS011;26359;48.750;9.314;2023-03-08T01:01:01;16.40;;;10.55;;
40675;SDS011;26359;48.750;9.314;2023-03-08T01:03:26;16.65;;;10.77;;
40675;SDS011;26359;48.750;9.314;2023-03-08T01:05:53;18.15;;;11.07;;
40675;SDS011;26359;48.750;9.314;2023-03-08T01:08:21;16.83;;;11.48;;
40675;SDS011;26359;48.750;9.314;2023-03-08T01:10:48;21.38;;;11.68;;
40675;SDS011;26359;48.750;9.314;2023-03-08T01:13:15;16.77;;;10.40;;
40675;SDS011;26359;48.750;9.314;2023-03-08T01:15:40;16.52;;;10.82;;
40675;SDS011;26359;48.750;9.314;2023-03-08T01:18:06;16.52;;;10.70;;
40675;SDS011;26359;48.750;9.314;2023-03-08T01:20:32;15.70;;;10.93;;
40675;SDS011;26359;48.750;9.314;2023-03-08T01:22:58;15.45;;;10.73;;
40675;SDS011;26359;48.750;9.314;2023-03-08T01:25:23;17.75;;;10.90;;
40675;SDS011;26359;48.750;9.314;2023-03-08T01:27:49;15.95;;;11.25;;
40675;SDS011;26359;48.750;9.314;2023-03-08T01:30:15;19.27;;;11.57;;
40675;SDS011;26359;48.750;9.314;2023-03-08T01:32:41;18.27;;;11.80;;
40675;SDS011;26359;48.750;9.314;2023-03-08T01:35:07;17.90;;;11.32;;
40675;SDS011;26359;48.750;9.314;2023-03-08T01:37:33;17.08;;;11.93;;
40675;SDS011;26359;48.750;9.314;2023-03-08T01:39:59;17.85;;;12.35;;
40675;SDS011;26359;48.750;9.314;2023-03-08T01:42:25;19.17;;;12.13;;
40675;SDS011;26359;48.750;9.314;2023-03-08T01:44:52;16.23;;;11.27;;
40675;SDS011;26359;48.750;9.314;2023-03-08T01:47:26;16.42;;;11.27;;
40675;SDS011;26359;48.750;9.314;2023-03-08T01:49:55;15.88;;;10.23;;
40675;SDS011;26359;48.750;9.314;2023-03-08T01:52:25;14.40;;;9.80;;
40675;SDS011;26359;48.750;9.314;2023-03-08T01:54:56;16.98;;;10.77;;
40675;SDS011;26359;48.750;9.314;2023-03-08T01:57:26;16.38;;;10.45;;
40675;SDS011;26359;48.750;9.314;2023-03-08T01:59:58;16.45;;;10.63;;
40675;SDS011;26359;48.750;9.314;2023-03-08T02:02:31;17.00;;;10.70;;
40675;SDS011;26359;48.750;9.314;2023-03-08T02:05:04;15.63;;;10.85;;
40675;SDS011;26359;48.750;9.314;2023-03-08T02:07:30;17.05;;;10.43;;
40675;SDS011;26359;48.750;9.314;2023-03-08T02:09:56;16.27;;;9.93;;
40675;SDS011;26359;48.750;9.314;2023-03-08T02:12:22;15.05;;;10.30;;
40675;SDS011;26359;48.750;9.314;2023-03-08T02:14:47;14.18;;;10.07;;
40675;SDS011;26359;48.750;9.314;2023-03-08T02:17:14;15.00;;;10.68;;
40675;SDS011;26359;48.750;9.314;2023-03-08T02:22:09;17.95;;;10.55;;
40675;SDS011;26359;48.750;9.314;2023-03-08T02:24:36;17.73;;;11.13;;
40675;SDS011;26359;48.750;9.314;2023-03-08T02:27:05;17.27;;;11.30;;
40675;SDS011;26359;48.750;9.314;2023-03-08T02:29:35;19.13;;;11.02;;
40675;SDS011;26359;48.750;9.314;2023-03-08T02:32:00;16.05;;;10.23;;
40675;SDS011;26359;48.750;9.314;2023-03-08T02:34:26;15.32;;;10.73;;
40675;SDS011;26359;48.750;9.314;2023-03-08T02:36:51;15.50;;;10.60;;
40675;SDS011;26359;48.750;9.314;2023-03-08T02:39:17;17.20;;;10.90;;
40675;SDS011;26359;48.750;9.314;2023-03-08T02:41:42;17.88;;;11.50;;
40675;SDS011;26359;48.750;9.314;2023-03-08T02:44:08;15.23;;;10.80;;
40675;SDS011;26359;48.750;9.314;2023-03-08T02:46:33;16.45;;;11.52;;
40675;SDS011;26359;48.750;9.314;2023-03-08T02:48:59;17.55;;;11.07;;
40675;SDS011;26359;48.750;9.314;2023-03-08T02:51:25;18.60;;;10.90;;
40675;SDS011;26359;48.750;9.314;2023-03-08T02:53:50;19.92;;;11.40;;
40675;SDS011;26359;48.750;9.314;2023-03-08T02:56:16;18.25;;;11.23;;
40675;SDS011;26359;48.750;9.314;2023-03-08T02:58:41;15.98;;;11.30;;
40675;SDS011;26359;48.750;9.314;2023-03-08T03:01:13;18.75;;;11.38;;
40675;SDS011;26359;48.750;9.314;2023-03-08T03:03:39;14.55;;;11.35;;
40675;SDS011;26359;48.750;9.314;2023-03-08T03:06:11;16.50;;;11.18;;
40675;SDS011;26359;48.750;9.314;2023-03-08T03:08:41;18.02;;;10.75;;
40675;SDS011;26359;48.750;9.314;2023-03-08T03:11:16;16.52;;;10.85;;
40675;SDS011;26359;48.750;9.314;2023-03-08T03:13:44;16.80;;;11.63;;
40675;SDS011;26359;48.750;9.314;2023-03-08T03:16:11;17.70;;;10.63;;
40675;SDS011;26359;48.750;9.314;2023-03-08T03:18:38;16.60;;;11.25;;
40675;SDS011;26359;48.750;9.314;2023-03-08T03:21:05;15.82;;;11.75;;
40675;SDS011;26359;48.750;9.314;2023-03-08T03:23:33;18.10;;;11.57;;
40675;SDS011;26359;48.750;9.314;2023-03-08T03:26:06;17.52;;;11.82;;
40675;SDS011;26359;48.750;9.314;2023-03-08T03:28:34;17.38;;;11.63;;
40675;SDS011;26359;48.750;9.314;2023-03-08T03:31:00;15.48;;;11.10;;
40675;SDS011;26359;48.750;9.314;2023-03-08T03:33:26;17.88;;;12.20;;
40675;SDS011;26359;48.750;9.314;2023-03-08T03:35:52;16.80;;;11.82;;
40675;SDS011;26359;48.750;9.314;2023-03-08T03:38:18;15.75;;;10.63;;
40675;SDS011;26359;48.750;9.314;2023-03-08T03:40:43;20.65;;;11.63;;
40675;SDS011;26359;48.750;9.314;2023-03-08T03:43:09;17.58;;;10.73;;
40675;SDS011;26359;48.750;9.314;2023-03-08T03:45:34;18.60;;;11.77;;
40675;SDS011;26359;48.750;9.314;2023-03-08T03:48:00;17.23;;;11.30;;
40675;SDS011;26359;48.750;9.314;2023-03-08T03:50:25;18.63;;;11.90;;
40675;SDS011;26359;48.750;9.314;2023-03-08T03:52:51;15.82;;;11.00;;
40675;SDS011;26359;48.750;9.314;2023-03-08T03:55:16;17.55;;;11.20;;
40675;SDS011;26359;48.750;9.314;2023-03-08T03:57:42;15.75;;;11.52;;
40675;SDS011;26359;48.750;9.314;2023-03-08T04:00:08;14.95;;;11.60;;
40675;SDS011;26359;48.750;9.314;2023-03-08T04:02:34;19.25;;;12.20;;
40675;SDS011;26359;48.750;9.314;2023-03-08T04:04:59;16.83;;;11.60;;
40675;SDS011;26359;48.750;9.314;2023-03-08T04:07:25;16.23;;;10.93;;
40675;SDS011;26359;48.750;9.314;2023-03-08T04:09:50;19.02;;;11.80;;
40675;SDS011;26359;48.750;9.314;2023-03-08T04:12:16;16.90;;;11.25;;
40675;SDS011;26359;48.750;9.314;2023-03-08T04:14:41;20.05;;;11.63;;
40675;SDS011;26359;48.750;9.314;2023-03-08T04:17:07;20.83;;;11.60;;
40675;SDS011;26359;48.750;9.314;2023-03-08T04:19:33;15.88;;;11.80;;
40675;SDS011;26359;48.750;9.314;2023-03-08T04:21:58;17.58;;;11.48;;
40675;SDS011;26359;48.750;9.314;2023-03-08T04:24:24;19.60;;;11.57;;
40675;SDS011;26359;48.750;9.314;2023-03-08T04:26:49;20.13;;;12.10;;
40675;SDS011;26359;48.750;9.314;2023-03-08T04:29:15;17.42;;;12.60;;
40675;SDS011;26359;48.750;9.314;2023-03-08T04:31:40;16.20;;;10.90;;
40675;SDS011;26359;48.750;9.314;2023-03-08T04:34:06;17.70;;;11.57;;
40675;SDS011;26359;48.750;9.314;2023-03-08T04:36:32;16.85;;;11.45;;
40675;SDS011;26359;48.750;9.314;2023-03-08T04:38:57;16.33;;;11.63;;
40675;SDS011;26359;48.750;9.314;2023-03-08T04:41:23;16.02;;;11.10;;
40675;SDS011;26359;48.750;9.314;2023-03-08T04:43:49;17.35;;;12.18;;
40675;SDS011;26359;48.750;9.314;2023-03-08T04:46:17;22.00;;;12.75;;
40675;SDS011;26359;48.750;9.314;2023-03-08T04:48:45;16.90;;;11.13;;
40675;SDS011;26359;48.750;9.314;2023-03-08T04:51:12;18.27;;;12.30;;
40675;SDS011;26359;48.750;9.314;2023-03-08T04:53:39;17.60;;;11.35;;
40675;SDS011;26359;48.750;9.314;2023-03-08T04:56:05;21.67;;;12.65;;
40675;SDS011;26359;48.750;9.314;2023-03-08T04:58:32;16.77;;;12.02;;
40675;SDS011;26359;48.750;9.314;2023-03-08T05:00:58;16.88;;;12.00;;
40675;SDS011;26359;48.750;9.314;2023-03-08T05:03:24;18.33;;;13.05;;
40675;SDS011;26359;48.750;9.314;2023-03-08T05:05:52;18.83;;;12.02;;
40675;SDS011;26359;48.750;9.314;2023-03-08T05:08:19;20.08;;;12.63;;
40675;SDS011;26359;48.750;9.314;2023-03-08T05:10:46;18.52;;;12.40;;
40675;SDS011;26359;48.750;9.314;2023-03-08T05:13:12;22.17;;;13.15;;
40675;SDS011;26359;48.750;9.314;2023-03-08T05:15:38;19.77;;;13.23;;
40675;SDS011;26359;48.750;9.314;2023-03-08T05:18:04;18.45;;;12.68;;
40675;SDS011;26359;48.750;9.314;2023-03-08T05:20:29;19.90;;;12.48;;
40675;SDS011;26359;48.750;9.314;2023-03-08T05:22:55;19.67;;;13.32;;
40675;SDS011;26359;48.750;9.314;2023-03-08T05:25:20;20.25;;;13.50;;
40675;SDS011;26359;48.750;9.314;2023-03-08T05:27:46;23.35;;;13.63;;
40675;SDS011;26359;48.750;9.314;2023-03-08T05:30:12;19.63;;;12.88;;
40675;SDS011;26359;48.750;9.314;2023-03-08T05:32:37;18.77;;;13.00;;
40675;SDS011;26359;48.750;9.314;2023-03-08T05:35:03;21.58;;;14.73;;
40675;SDS011;26359;48.750;9.314;2023-03-08T05:37:29;22.45;;;13.88;;
40675;SDS011;26359;48.750;9.314;2023-03-08T05:39:54;18.38;;;13.32;;
40675;SDS011;26359;48.750;9.314;2023-03-08T05:42:20;18.80;;;12.95;;
40675;SDS011;26359;48.750;9.314;2023-03-08T05:44:45;21.42;;;14.60;;
40675;SDS011;26359;48.750;9.314;2023-03-08T05:47:11;20.55;;;13.48;;
40675;SDS011;26359;48.750;9.314;2023-03-08T05:49:36;21.50;;;13.57;;
40675;SDS011;26359;48.750;9.314;2023-03-08T05:52:02;20.73;;;13.35;;
40675;SDS011;26359;48.750;9.314;2023-03-08T05:54:28;20.42;;;13.98;;
40675;SDS011;26359;48.750;9.314;2023-03-08T05:56:53;21.02;;;14.55;;
40675;SDS011;26359;48.750;9.314;2023-03-08T05:59:19;19.15;;;13.43;;
40675;SDS011;26359;48.750;9.314;2023-03-08T06:01:44;21.27;;;13.80;;
40675;SDS011;26359;48.750;9.314;2023-03-08T06:04:10;19.48;;;13.05;;
40675;SDS011;26359;48.750;9.314;2023-03-08T06:06:35;22.15;;;13.18;;
40675;SDS011;26359;48.750;9.314;2023-03-08T06:09:01;18.90;;;12.45;;
40675;SDS011;26359;48.750;9.314;2023-03-08T06:11:26;18.92;;;12.95;;
40675;SDS011;26359;48.750;9.314;2023-03-08T06:13:52;20.95;;;13.80;;
40675;SDS011;26359;48.750;9.314;2023-03-08T06:16:18;20.55;;;12.38;;
40675;SDS011;26359;48.750;9.314;2023-03-08T06:18:44;21.90;;;12.77;;
40675;SDS011;26359;48.750;9.314;2023-03-08T06:21:10;22.10;;;13.40;;
40675;SDS011;26359;48.750;9.314;2023-03-08T06:23:36;23.05;;;14.48;;
40675;SDS011;26359;48.750;9.314;2023-03-08T06:26:02;20.63;;;13.93;;
40675;SDS011;26359;48.750;9.314;2023-03-08T06:28:30;20.38;;;12.63;;
40675;SDS011;26359;48.750;9.314;2023-03-08T06:30:56;21.85;;;12.48;;
40675;SDS011;26359;48.750;9.314;2023-03-08T06:33:23;20.13;;;12.93;;
40675;SDS011;26359;48.750;9.314;2023-03-08T06:35:57;19.10;;;12.65;;
40675;SDS011;26359;48.750;9.314;2023-03-08T06:38:25;20.88;;;12.73;;
40675;SDS011;26359;48.750;9.314;2023-03-08T06:40:52;19.65;;;13.57;;
40675;SDS011;26359;48.750;9.314;2023-03-08T06:43:17;20.50;;;12.27;;
40675;SDS011;26359;48.750;9.314;2023-03-08T06:45:43;19.75;;;13.80;;
40675;SDS011;26359;48.750;9.314;2023-03-08T06:48:09;21.27;;;13.50;;
40675;SDS011;26359;48.750;9.314;2023-03-08T06:50:35;20.00;;;12.25;;
40675;SDS011;26359;48.750;9.314;2023-03-08T06:53:00;19.15;;;12.80;;
40675;SDS011;26359;48.750;9.314;2023-03-08T06:55:26;18.40;;;12.90;;
40675;SDS011;26359;48.750;9.314;2023-03-08T06:57:52;20.83;;;13.63;;
40675;SDS011;26359;48.750;9.314;2023-03-08T07:00:20;21.45;;;14.25;;
40675;SDS011;26359;48.750;9.314;2023-03-08T07:02:46;22.05;;;13.57;;
40675;SDS011;26359;48.750;9.314;2023-03-08T07:05:13;22.13;;;13.52;;
40675;SDS011;26359;48.750;9.314;2023-03-08T07:07:40;22.30;;;14.52;;
40675;SDS011;26359;48.750;9.314;2023-03-08T07:10:06;23.63;;;13.45;;
40675;SDS011;26359;48.750;9.314;2023-03-08T07:12:36;23.27;;;13.45;;
40675;SDS011;26359;48.750;9.314;2023-03-08T07:15:07;20.02;;;13.93;;
40675;SDS011;26359;48.750;9.314;2023-03-08T07:17:38;22.13;;;13.85;;
40675;SDS011;26359;48.750;9.314;2023-03-08T07:20:04;23.25;;;14.85;;
40675;SDS011;26359;48.750;9.314;2023-03-08T07:22:30;20.17;;;13.10;;
40675;SDS011;26359;48.750;9.314;2023-03-08T07:24:56;20.90;;;14.30;;
40675;SDS011;26359;48.750;9.314;2023-03-08T07:27:21;19.75;;;13.93;;
40675;SDS011;26359;48.750;9.314;2023-03-08T07:29:47;23.85;;;14.40;;
40675;SDS011;26359;48.750;9.314;2023-03-08T07:32:12;25.70;;;17.45;;
40675;SDS011;26359;48.750;9.314;2023-03-08T07:34:38;24.13;;;17.25;;
40675;SDS011;26359;48.750;9.314;2023-03-08T07:37:04;20.23;;;14.43;;
40675;SDS011;26359;48.750;9.314;2023-03-08T07:39:29;22.25;;;15.27;;
40675;SDS011;26359;48.750;9.314;2023-03-08T07:41:55;20.85;;;14.80;;
40675;SDS011;26359;48.750;9.314;2023-03-08T07:44:20;24.63;;;16.40;;
40675;SDS011;26359;48.750;9.314;2023-03-08T07:46:46;23.35;;;14.80;;
40675;SDS011;26359;48.750;9.314;2023-03-08T07:49:11;24.65;;;16.33;;
40675;SDS011;26359;48.750;9.314;2023-03-08T07:51:37;22.00;;;15.05;;
40675;SDS011;26359;48.750;9.314;2023-03-08T07:54:02;25.23;;;14.77;;
40675;SDS011;26359;48.750;9.314;2023-03-08T07:56:28;23.13;;;15.32;;
40675;SDS011;26359;48.750;9.314;2023-03-08T07:58:57;19.42;;;14.05;;
40675;SDS011;26359;48.750;9.314;2023-03-08T08:01:22;21.77;;;15.35;;
40675;SDS011;26359;48.750;9.314;2023-03-08T08:03:48;21.77;;;15.35;;
40675;SDS011;26359;48.750;9.314;2023-03-08T08:06:14;21.85;;;15.23;;
40675;SDS011;26359;48.750;9.314;2023-03-08T08:08:40;23.23;;;15.98;;
40675;SDS011;26359;48.750;9.314;2023-03-08T08:11:10;22.92;;;16.55;;
40675;SDS011;26359;48.750;9.314;2023-03-08T08:13:36;20.58;;;15.73;;
40675;SDS011;26359;48.750;9.314;2023-03-08T08:16:02;20.98;;;14.63;;
40675;SDS011;26359;48.750;9.314;2023-03-08T08:18:28;28.25;;;16.95;;
40675;SDS011;26359;48.750;9.314;2023-03-08T08:21:03;22.55;;;16.13;;
40675;SDS011;26359;48.750;9.314;2023-03-08T08:23:30;22.70;;;16.60;;
40675;SDS011;26359;48.750;9.314;2023-03-08T08:25:56;25.30;;;16.63;;
40675;SDS011;26359;48.750;9.314;2023-03-08T08:28:23;22.77;;;18.17;;
40675;SDS011;26359;48.750;9.314;2023-03-08T08:31:02;23.80;;;16.17;;
40675;SDS011;26359;48.750;9.314;2023-03-08T08:33:30;21.95;;;15.00;;
40675;SDS011;26359;48.750;9.314;2023-03-08T08:35:56;22.30;;;15.23;;
40675;SDS011;26359;48.750;9.314;2023-03-08T08:38:23;23.17;;;15.65;;
40675;SDS011;26359;48.750;9.314;2023-03-08T08:40:49;27.02;;;17.20;;
40675;SDS011;26359;48.750;9.314;2023-03-08T08:43:14;23.77;;;15.88;;
40675;SDS011;26359;48.750;9.314;2023-03-08T08:45:41;25.48;;;16.95;;
40675;SDS011;26359;48.750;9.314;2023-03-08T08:48:11;21.80;;;16.33;;
40675;SDS011;26359;48.750;9.314;2023-03-08T08:50:38;22.17;;;15.75;;
40675;SDS011;26359;48.750;9.314;2023-03-08T08:53:04;24.67;;;15.82;;
40675;SDS011;26359;48.750;9.314;2023-03-08T08:55:29;27.17;;;17.70;;
40675;SDS011;26359;48.750;9.314;2023-03-08T08:57:55;27.48;;;17.10;;
40675;SDS011;26359;48.750;9.314;2023-03-08T09:00:20;27.50;;;18.42;;
40675;SDS011;26359;48.750;9.314;2023-03-08T09:02:46;26.25;;;18.33;;
40675;SDS011;26359;48.750;9.314;2023-03-08T09:05:12;29.88;;;18.30;;
40675;SDS011;26359;48.750;9.314;2023-03-08T09:07:37;24.35;;;17.38;;
40675;SDS011;26359;48.750;9.314;2023-03-08T09:10:03;32.60;;;17.67;;
40675;SDS011;26359;48.750;9.314;2023-03-08T09:12:29;27.95;;;18.52;;
40675;SDS011;26359;48.750;9.314;2023-03-08T09:14:55;26.10;;;18.17;;
40675;SDS011;26359;48.750;9.314;2023-03-08T09:17:20;29.13;;;19.98;;
40675;SDS011;26359;48.750;9.314;2023-03-08T09:19:46;27.00;;;17.42;;
40675;SDS011;26359;48.750;9.314;2023-03-08T09:22:11;30.83;;;18.85;;
40675;SDS011;26359;48.750;9.314;2023-03-08T09:24:37;25.95;;;18.48;;
40675;SDS011;26359;48.750;9.314;2023-03-08T09:27:03;27.83;;;17.52;;
40675;SDS011;26359;48.750;9.314;2023-03-08T09:29:30;25.70;;;19.10;;
40675;SDS011;26359;48.750;9.314;2023-03-08T09:31:56;28.75;;;19.30;;
40675;SDS011;26359;48.750;9.314;2023-03-08T09:34:21;30.17;;;20.27;;
40675;SDS011;26359;48.750;9.314;2023-03-08T09:36:47;30.00;;;20.35;;
40675;SDS011;26359;48.750;9.314;2023-03-08T09:39:12;29.52;;;19.92;;
40675;SDS011;26359;48.750;9.314;2023-03-08T09:47:00;26.83;;;20.73;;
40675;SDS011;26359;48.750;9.314;2023-03-08T09:49:32;27.13;;;22.52;;
40675;SDS011;26359;48.750;9.314;2023-03-08T09:52:10;26.05;;;21.30;;
40675;SDS011;26359;48.750;9.314;2023-03-08T09:54:39;31.58;;;23.73;;
40675;SDS011;26359;48.750;9.314;2023-03-08T09:57:05;28.92;;;20.90;;
40675;SDS011;26359;48.750;9.314;2023-03-08T09:59:48;35.33;;;21.90;;
40675;SDS011;26359;48.750;9.314;2023-03-08T10:05:11;26.63;;;20.38;;
40675;SDS011;26359;48.750;9.314;2023-03-08T10:10:24;22.58;;;19.58;;
40675;SDS011;26359;48.750;9.314;2023-03-08T10:15:55;25.15;;;19.30;;
40675;SDS011;26359;48.750;9.314;2023-03-08T10:21:12;23.52;;;17.55;;
40675;SDS011;26359;48.750;9.314;2023-03-08T10:23:41;23.42;;;14.80;;
40675;SDS011;26359;48.750;9.314;2023-03-08T10:26:10;23.00;;;16.25;;
40675;SDS011;26359;48.750;9.314;2023-03-08T10:28:37;23.27;;;14.80;;
40675;SDS011;26359;48.750;9.314;2023-03-08T10:31:04;20.40;;;13.90;;
40675;SDS011;26359;48.750;9.314;2023-03-08T10:33:42;19.35;;;12.98;;
40675;SDS011;26359;48.750;9.314;2023-03-08T10:36:16;17.23;;;12.65;;
40675;SDS011;26359;48.750;9.314;2023-03-08T10:38:43;16.13;;;12.90;;
40675;SDS011;26359;48.750;9.314;2023-03-08T10:41:19;18.55;;;13.23;;
40675;SDS011;26359;48.750;9.314;2023-03-08T10:43:45;17.27;;;12.30;;
40675;SDS011;26359;48.750;9.314;2023-03-08T10:48:43;21.50;;;15.93;;
40675;SDS011;26359;48.750;9.314;2023-03-08T10:53:56;16.55;;;11.73;;
40675;SDS011;26359;48.750;9.314;2023-03-08T10:58:55;12.50;;;8.63;;
40675;SDS011;26359;48.750;9.314;2023-03-08T11:01:23;9.63;;;7.00;;
40675;SDS011;26359;48.750;9.314;2023-03-08T11:04:01;7.80;;;7.00;;
40675;SDS011;26359;48.750;9.314;2023-03-08T11:06:27;8.80;;;6.75;;
40675;SDS011;26359;48.750;9.314;2023-03-08T11:08:54;9.00;;;6.88;;
40675;SDS011;26359;48.750;9.314;2023-03-08T11:11:21;6.45;;;5.85;;
40675;SDS011;26359;48.750;9.314;2023-03-08T11:13:47;10.60;;;7.10;;
40675;SDS011;26359;48.750;9.314;2023-03-08T11:21:46;5.60;;;5.20;;
40675;SDS011;26359;48.750;9.314;2023-03-08T11:32:27;3.30;;;3.05;;
40675;SDS011;26359;48.750;9.314;2023-03-08T11:38:17;3.60;;;3.40;;
40675;SDS011;26359;48.750;9.314;2023-03-08T11:46:25;3.70;;;3.40;;
40675;SDS011;26359;48.750;9.314;2023-03-08T11:56:55;3.10;;;2.80;;
40675;SDS011;26359;48.750;9.314;2023-03-08T11:59:30;3.03;;;2.83;;
40675;SDS011;26359;48.750;9.314;2023-03-08T12:07:40;3.65;;;3.35;;
40675;SDS011;26359;48.750;9.314;2023-03-08T12:10:23;4.00;;;3.63;;
40675;SDS011;26359;48.750;9.314;2023-03-08T12:13:22;4.75;;;4.10;;
40675;SDS011;26359;48.750;9.314;2023-03-08T12:16:38;3.78;;;3.58;;
40675;SDS011;26359;48.750;9.314;2023-03-08T12:19:04;4.53;;;4.25;;
40675;SDS011;26359;48.750;9.314;2023-03-08T12:30:38;3.17;;;2.88;;
40675;SDS011;26359;48.750;9.314;2023-03-08T12:33:08;4.18;;;3.88;;
40675;SDS011;26359;48.750;9.314;2023-03-08T12:35:37;4.45;;;4.15;;
40675;SDS011;26359;48.750;9.314;2023-03-08T12:43:12;4.78;;;4.45;;
40675;SDS011;26359;48.750;9.314;2023-03-08T12:46:07;5.90;;;5.40;;
40675;SDS011;26359;48.750;9.314;2023-03-08T12:48:36;6.40;;;5.90;;
40675;SDS011;26359;48.750;9.314;2023-03-08T12:58:48;5.40;;;5.00;;
40675;SDS011;26359;48.750;9.314;2023-03-08T13:04:05;5.03;;;4.68;;
40675;SDS011;26359;48.750;9.314;2023-03-08T13:09:24;18.85;;;17.90;;
40675;SDS011;26359;48.750;9.314;2023-03-08T13:14:44;24.05;;;22.75;;
40675;SDS011;26359;48.750;9.314;2023-03-08T13:20:07;27.08;;;25.52;;
40675;SDS011;26359;48.750;9.314;2023-03-08T13:25:35;7.20;;;5.30;;
40675;SDS011;26359;48.750;9.314;2023-03-08T13:28:20;5.40;;;5.15;;
40675;SDS011;26359;48.750;9.314;2023-03-08T13:30:57;8.68;;;8.13;;
40675;SDS011;26359;48.750;9.314;2023-03-08T13:33:45;13.95;;;13.25;;
40675;SDS011;26359;48.750;9.314;2023-03-08T13:36:14;21.05;;;19.90;;
40675;SDS011;26359;48.750;9.314;2023-03-08T13:38:43;24.35;;;22.98;;
40675;SDS011;26359;48.750;9.314;2023-03-08T13:41:09;19.35;;;18.27;;
40675;SDS011;26359;48.750;9.314;2023-03-08T13:43:34;15.98;;;15.10;;
40675;SDS011;26359;48.750;9.314;2023-03-08T13:46:04;8.65;;;6.65;;
40675;SDS011;26359;48.750;9.314;2023-03-08T13:48:34;3.22;;;3.00;;
40675;SDS011;26359;48.750;9.314;2023-03-08T13:51:01;6.63;;;6.20;;
40675;SDS011;26359;48.750;9.314;2023-03-08T13:53:28;18.40;;;17.20;;
40675;SDS011;26359;48.750;9.314;2023-03-08T13:55:57;24.48;;;23.02;;
40675;SDS011;26359;48.750;9.314;2023-03-08T14:03:46;7.95;;;7.35;;
40675;SDS011;26359;48.750;9.314;2023-03-08T14:06:22;8.98;;;8.57;;
40675;SDS011;26359;48.750;9.314;2023-03-08T14:08:48;13.93;;;12.90;;
40675;SDS011;26359;48.750;9.314;2023-03-08T14:11:17;13.98;;;13.25;;
40675;SDS011;26359;48.750;9.314;2023-03-08T14:13:48;5.68;;;5.38;;
40675;SDS011;26359;48.750;9.314;2023-03-08T14:16:24;5.63;;;3.00;;
40675;SDS011;26359;48.750;9.314;2023-03-08T14:18:54;3.15;;;3.03;;
40675;SDS011;26359;48.750;9.314;2023-03-08T14:21:22;4.70;;;3.03;;
40675;SDS011;26359;48.750;9.314;2023-03-08T14:23:59;2.80;;;2.70;;
40675;SDS011;26359;48.750;9.314;2023-03-08T14:31:35;4.32;;;3.00;;
40675;SDS011;26359;48.750;9.314;2023-03-08T14:34:03;5.60;;;5.10;;
40675;SDS011;26359;48.750;9.314;2023-03-08T14:36:44;9.30;;;8.43;;
40675;SDS011;26359;48.750;9.314;2023-03-08T14:39:17;13.35;;;12.65;;
40675;SDS011;26359;48.750;9.314;2023-03-08T14:41:43;22.23;;;21.13;;
40675;SDS011;26359;48.750;9.314;2023-03-08T14:44:16;25.70;;;24.30;;
40675;SDS011;26359;48.750;9.314;2023-03-08T14:46:45;27.15;;;25.75;;
40675;SDS011;26359;48.750;9.314;2023-03-08T14:49:20;27.05;;;25.45;;
40675;SDS011;26359;48.750;9.314;2023-03-08T14:54:27;7.43;;;6.95;;
40675;SDS011;26359;48.750;9.314;2023-03-08T14:56:54;7.10;;;6.50;;
40675;SDS011;26359;48.750;9.314;2023-03-08T14:59:19;6.88;;;6.18;;
40675;SDS011;26359;48.750;9.314;2023-03-08T15:01:46;13.93;;;12.82;;
40675;SDS011;26359;48.750;9.314;2023-03-08T15:04:16;15.13;;;14.27;;
40675;SDS011;26359;48.750;9.314;2023-03-08T15:06:42;8.18;;;7.68;;
40675;SDS011;26359;48.750;9.314;2023-03-08T15:09:08;6.90;;;6.55;;
40675;SDS011;26359;48.750;9.314;2023-03-08T15:11:36;4.20;;;3.80;;
40675;SDS011;26359;48.750;9.314;2023-03-08T15:14:02;5.53;;;5.30;;
40675;SDS011;26359;48.750;9.314;2023-03-08T15:16:28;7.07;;;6.65;;
40675;SDS011;26359;48.750;9.314;2023-03-08T15:18:53;8.05;;;7.55;;
40675;SDS011;26359;48.750;9.314;2023-03-08T15:21:23;9.85;;;9.35;;
40675;SDS011;26359;48.750;9.314;2023-03-08T15:23:50;7.40;;;6.90;;
40675;SDS011;26359;48.750;9.314;2023-03-08T15:26:17;3.80;;;3.50;;
40675;SDS011;26359;48.750;9.314;2023-03-08T15:28:56;4.07;;;3.88;;
40675;SDS011;26359;48.750;9.314;2023-03-08T15:31:22;5.38;;;4.55;;
40675;SDS011;26359;48.750;9.314;2023-03-08T15:33:48;10.15;;;9.25;;
40675;SDS011;26359;48.750;9.314;2023-03-08T15:36:14;6.40;;;5.93;;
40675;SDS011;26359;48.750;9.314;2023-03-08T15:38:42;5.72;;;5.30;;
40675;SDS011;26359;48.750;9.314;2023-03-08T15:41:11;5.10;;;4.80;;
40675;SDS011;26359;48.750;9.314;2023-03-08T15:43:38;11.70;;;11.15;;
40675;SDS011;26359;48.750;9.314;2023-03-08T15:46:05;20.55;;;19.48;;
40675;SDS011;26359;48.750;9.314;2023-03-08T15:48:30;12.68;;;11.85;;
40675;SDS011;26359;48.750;9.314;2023-03-08T15:50:56;11.13;;;10.27;;
40675;SDS011;26359;48.750;9.314;2023-03-08T15:53:22;10.63;;;10.02;;
40675;SDS011;26359;48.750;9.314;2023-03-08T15:55:48;17.90;;;17.05;;
40675;SDS011;26359;48.750;9.314;2023-03-08T15:58:13;18.88;;;17.67;;
40675;SDS011;26359;48.750;9.314;2023-03-08T16:00:39;10.63;;;10.10;;
40675;SDS011;26359;48.750;9.314;2023-03-08T16:03:05;4.75;;;4.38;;
40675;SDS011;26359;48.750;9.314;2023-03-08T16:05:30;4.45;;;4.25;;
40675;SDS011;26359;48.750;9.314;2023-03-08T16:08:00;4.18;;;3.97;;
40675;SDS011;26359;48.750;9.314;2023-03-08T16:10:28;6.50;;;5.90;;
40675;SDS011;26359;48.750;9.314;2023-03-08T16:12:55;8.88;;;8.20;;
40675;SDS011;26359;48.750;9.314;2023-03-08T16:15:21;9.07;;;8.63;;
40675;SDS011;26359;48.750;9.314;2023-03-08T16:17:46;8.60;;;8.07;;
40675;SDS011;26359;48.750;9.314;2023-03-08T16:20:13;7.45;;;7.07;;